createdAt,value
2019-02-18T00:03:12.079Z,16.87
2019-02-18T00:05:52.606Z,17.17
2019-02-18T00:08:33.533Z,17.63
2019-02-18T00:11:12.886Z,16.87
2019-02-18T00:14:00.943Z,16.33
2019-02-18T00:16:49.004Z,15.73
2019-02-18T00:19:37.093Z,15.90
2019-02-18T00:22:25.213Z,17.17
2019-02-18T00:25:13.268Z,19.23
2019-02-18T00:28:01.385Z,19.90
2019-02-18T00:30:49.526Z,20.17
2019-02-18T00:33:37.654Z,18.87
2019-02-18T00:36:25.799Z,17.73
2019-02-18T00:39:13.929Z,18.03
2019-02-18T00:42:02.006Z,16.07
2019-02-18T00:44:50.073Z,15.57
2019-02-18T00:47:38.190Z,16.60
2019-02-18T00:50:18.700Z,16.93
2019-02-18T00:52:59.090Z,17.00
2019-02-18T00:55:39.930Z,16.87
2019-02-18T00:58:20.746Z,17.77
2019-02-18T01:01:01.573Z,17.83
2019-02-18T01:03:42.433Z,17.57
2019-02-18T01:06:23.174Z,16.37
2019-02-18T01:08:52.270Z,18.47
2019-02-18T01:11:40.774Z,16.63
2019-02-18T01:14:28.907Z,16.67
2019-02-18T01:17:17.050Z,18.03
2019-02-18T01:20:05.741Z,15.67
2019-02-18T01:22:53.809Z,16.20
2019-02-18T01:25:42.098Z,17.63
2019-02-18T01:28:30.246Z,17.27
2019-02-18T01:31:18.374Z,17.47
2019-02-18T01:34:06.437Z,19.10
2019-02-18T01:36:54.570Z,17.97
2019-02-18T01:39:42.709Z,18.97
2019-02-18T01:42:30.891Z,19.30
2019-02-18T01:45:19.274Z,19.00
2019-02-18T01:48:07.890Z,18.13
2019-02-18T01:50:48.967Z,19.53
2019-02-18T01:53:29.672Z,18.67
2019-02-18T01:56:10.397Z,18.57
2019-02-18T01:58:51.017Z,20.23
2019-02-18T02:01:31.901Z,19.97
2019-02-18T02:04:12.542Z,19.37
2019-02-18T02:06:53.166Z,20.47
2019-02-18T02:09:33.942Z,19.30
2019-02-18T02:12:14.626Z,19.47
2019-02-18T02:14:55.330Z,17.93
2019-02-18T02:17:36.314Z,20.07
2019-02-18T02:20:16.834Z,18.80
2019-02-18T02:22:57.523Z,19.33
2019-02-18T02:25:38.282Z,19.27
2019-02-18T02:28:19.234Z,18.97
2019-02-18T02:31:01.244Z,19.50
2019-02-18T02:33:41.895Z,20.00
2019-02-18T02:36:22.497Z,19.63
2019-02-18T02:39:03.254Z,19.43
2019-02-18T02:41:43.910Z,18.10
2019-02-18T02:44:24.439Z,19.00
2019-02-18T02:47:05.183Z,17.40
2019-02-18T02:49:46.435Z,19.13
2019-02-18T02:52:27.127Z,19.07
2019-02-18T02:55:07.905Z,17.87
2019-02-18T02:57:48.790Z,17.83
2019-02-18T03:00:29.346Z,18.53
2019-02-18T03:03:09.954Z,17.17
2019-02-18T03:05:50.743Z,18.87
2019-02-18T03:08:31.440Z,19.03
2019-02-18T03:11:12.060Z,19.47
2019-02-18T03:13:52.614Z,18.57
2019-02-18T03:16:33.466Z,18.83
2019-02-18T03:19:12.538Z,17.37
2019-02-18T03:22:00.686Z,18.13
2019-02-18T03:25:07.951Z,18.23
2019-02-18T03:28:00.839Z,16.93
2019-02-18T03:30:48.461Z,17.70
2019-02-18T03:33:38.099Z,18.23
2019-02-18T03:36:26.180Z,17.53
2019-02-18T03:39:14.266Z,17.67
2019-02-18T03:42:02.390Z,18.53
2019-02-18T03:44:50.468Z,18.87
2019-02-18T03:47:38.525Z,18.40
2019-02-18T03:50:26.593Z,19.87
2019-02-18T03:53:14.822Z,18.30
2019-02-18T03:56:02.962Z,19.40
2019-02-18T03:58:51.111Z,17.93
2019-02-18T04:01:39.262Z,19.20
2019-02-18T04:04:27.602Z,19.00
2019-02-18T04:07:15.665Z,16.77
2019-02-18T04:10:03.937Z,18.47
2019-02-18T04:12:52.061Z,18.47
2019-02-18T04:15:40.443Z,18.60
2019-02-18T04:18:28.845Z,17.90
2019-02-18T04:21:17.051Z,17.47
2019-02-18T04:24:05.186Z,18.77
2019-02-18T04:26:53.350Z,18.60
2019-02-18T04:29:41.502Z,17.70
2019-02-18T04:32:29.626Z,17.43
2019-02-18T04:35:17.704Z,19.10
2019-02-18T04:38:05.845Z,17.57
2019-02-18T04:40:53.914Z,17.93
2019-02-18T04:43:42.305Z,16.23
2019-02-18T04:46:31.943Z,16.33
2019-02-18T04:49:20.091Z,16.40
2019-02-18T04:52:00.580Z,16.20
2019-02-18T04:54:41.199Z,17.40
2019-02-18T04:57:21.738Z,18.27
2019-02-18T05:00:02.748Z,17.37
2019-02-18T05:02:43.499Z,17.13
2019-02-18T05:05:24.217Z,17.13
2019-02-18T05:08:05.059Z,17.17
2019-02-18T05:10:45.793Z,18.30
2019-02-18T05:13:26.419Z,21.30
2019-02-18T05:16:07.022Z,18.00
2019-02-18T05:18:47.650Z,20.20
2019-02-18T05:21:28.541Z,19.10
2019-02-18T05:24:09.226Z,18.90
2019-02-18T05:26:49.653Z,18.77
2019-02-18T05:29:30.183Z,19.93
2019-02-18T05:32:11.186Z,20.10
2019-02-18T05:34:51.663Z,20.10
2019-02-18T05:37:32.767Z,22.00
2019-02-18T05:40:13.253Z,18.93
2019-02-18T05:42:54.186Z,19.93
2019-02-18T05:45:34.715Z,21.70
2019-02-18T05:48:15.265Z,22.13
2019-02-18T05:50:56.223Z,23.10
2019-02-18T05:53:35.363Z,22.70
2019-02-18T05:56:23.507Z,23.07
2019-02-18T05:59:11.636Z,22.50
2019-02-18T06:01:59.783Z,22.00
2019-02-18T06:04:28.658Z,21.93
2019-02-18T06:10:48.754Z,20.43
2019-02-18T06:13:36.947Z,20.10
2019-02-18T06:16:25.077Z,20.30
2019-02-18T06:19:13.144Z,20.57
2019-02-18T06:22:01.323Z,20.13
2019-02-18T06:24:49.558Z,20.67
2019-02-18T06:27:37.641Z,18.47
2019-02-18T06:30:25.786Z,19.63
2019-02-18T06:33:13.931Z,19.07
2019-02-18T06:36:01.999Z,20.43
2019-02-18T06:38:50.243Z,20.53
2019-02-18T06:41:38.392Z,18.83
2019-02-18T06:44:45.758Z,19.47
2019-02-18T06:47:33.834Z,20.70
2019-02-18T06:50:21.922Z,18.83
2019-02-18T06:53:03.221Z,19.87
2019-02-18T06:55:43.723Z,19.67
2019-02-18T06:58:44.128Z,18.57
2019-02-18T07:01:26.273Z,19.33
2019-02-18T07:04:26.110Z,17.87
2019-02-18T07:07:26.545Z,19.57
2019-02-18T07:10:15.688Z,19.30
2019-02-18T07:12:56.914Z,20.10
2019-02-18T07:15:38.124Z,22.03
2019-02-18T07:18:19.216Z,20.57
2019-02-18T07:20:59.949Z,19.70
2019-02-18T07:23:41.200Z,23.73
2019-02-18T07:26:22.126Z,21.40
2019-02-18T07:29:02.839Z,21.20
2019-02-18T07:31:43.815Z,22.90
2019-02-18T07:34:24.945Z,22.73
2019-02-18T07:37:05.517Z,23.20
2019-02-18T07:39:46.273Z,20.33
2019-02-18T07:42:26.821Z,21.60
2019-02-18T07:45:07.498Z,22.90
2019-02-18T07:47:48.054Z,25.50
2019-02-18T07:50:28.563Z,23.77
2019-02-18T07:53:09.212Z,24.30
2019-02-18T07:55:49.742Z,26.53
2019-02-18T07:58:30.731Z,26.07
2019-02-18T08:01:11.350Z,25.43
2019-02-18T08:03:52.166Z,25.37
2019-02-18T08:06:32.678Z,23.97
2019-02-18T08:09:13.285Z,25.13
2019-02-18T08:11:54.118Z,24.20
2019-02-18T08:14:35.065Z,23.67
2019-02-18T08:17:15.698Z,24.43
2019-02-18T08:19:56.143Z,23.50
2019-02-18T08:22:36.817Z,23.77
2019-02-18T08:25:17.410Z,23.93
2019-02-18T08:27:58.010Z,22.50
2019-02-18T08:30:38.735Z,23.33
2019-02-18T08:33:19.609Z,24.07
2019-02-18T08:36:00.277Z,21.63
2019-02-18T08:38:41.003Z,21.53
2019-02-18T08:41:22.058Z,20.17
2019-02-18T08:44:02.934Z,18.93
2019-02-18T08:46:43.498Z,21.00
2019-02-18T08:49:24.307Z,19.33
2019-02-18T08:52:05.570Z,17.43
2019-02-18T08:54:56.057Z,17.00
2019-02-18T08:57:28.631Z,15.57
2019-02-18T09:00:09.545Z,13.67
2019-02-18T09:02:50.268Z,13.13
2019-02-18T09:05:31.067Z,14.20
2019-02-18T09:08:11.465Z,13.00
2019-02-18T09:10:52.133Z,12.70
2019-02-18T09:13:32.940Z,12.18
2019-02-18T09:16:13.628Z,11.53
2019-02-18T09:18:54.362Z,13.20
2019-02-18T09:21:35.732Z,11.00
2019-02-18T09:24:20.990Z,8.98
2019-02-18T09:27:01.983Z,9.08
2019-02-18T09:29:43.062Z,9.00
2019-02-18T09:32:24.327Z,9.53
2019-02-18T09:35:05.229Z,8.25
2019-02-18T09:37:45.882Z,7.80
2019-02-18T09:40:26.670Z,9.05
2019-02-18T09:43:07.384Z,9.38
2019-02-18T09:45:48.595Z,7.83
2019-02-18T09:48:29.683Z,7.37
2019-02-18T09:51:12.832Z,7.53
2019-02-18T09:53:53.897Z,4.20
2019-02-18T09:56:36.900Z,4.80
2019-02-18T09:59:17.437Z,4.70
2019-02-18T10:01:58.072Z,4.35
2019-02-18T10:04:39.387Z,4.72
2019-02-18T10:07:20.043Z,4.58
2019-02-18T10:10:00.802Z,4.30
2019-02-18T10:15:27.905Z,5.08
2019-02-18T10:18:08.565Z,5.00
2019-02-18T10:20:49.099Z,4.87
2019-02-18T10:23:29.768Z,4.95
2019-02-18T10:29:16.945Z,5.15
2019-02-18T10:31:57.978Z,5.10
2019-02-18T10:34:38.911Z,5.30
2019-02-18T10:37:19.523Z,5.40
2019-02-18T10:40:00.057Z,5.37
2019-02-18T10:42:40.962Z,4.75
2019-02-18T10:48:08.975Z,5.20
2019-02-18T10:50:50.053Z,4.60
2019-02-18T10:53:30.616Z,6.03
2019-02-18T10:56:11.701Z,6.33
2019-02-18T10:58:52.721Z,6.35
2019-02-18T11:01:33.694Z,5.95
2019-02-18T11:04:14.082Z,5.10
2019-02-18T11:06:55.291Z,6.15
2019-02-18T11:09:36.203Z,6.12
2019-02-18T11:12:15.427Z,6.05
2019-02-18T11:15:03.771Z,5.85
2019-02-18T11:17:51.924Z,6.15
2019-02-18T11:20:40.123Z,5.87
2019-02-18T11:23:28.267Z,5.62
2019-02-18T11:26:16.461Z,6.33
2019-02-18T11:29:04.604Z,5.95
2019-02-18T11:31:52.766Z,6.10
2019-02-18T11:34:41.040Z,6.53
2019-02-18T11:37:30.906Z,6.22
2019-02-18T11:40:19.053Z,6.35
2019-02-18T11:43:07.210Z,6.42
2019-02-18T11:45:55.407Z,7.17
2019-02-18T11:48:43.554Z,7.50
2019-02-18T11:51:24.097Z,7.22
2019-02-18T11:54:05.044Z,7.55
2019-02-18T11:56:45.811Z,8.15
2019-02-18T11:59:26.535Z,8.00
2019-02-18T12:02:07.307Z,8.10
2019-02-18T12:04:48.067Z,8.13
2019-02-18T12:07:28.843Z,8.53
2019-02-18T12:10:10.057Z,8.03
2019-02-18T12:12:51.620Z,7.03
2019-02-18T12:15:32.514Z,7.92
2019-02-18T12:18:13.920Z,7.37
2019-02-18T12:20:55.230Z,6.92
2019-02-18T12:23:35.652Z,7.62
2019-02-18T12:26:16.136Z,7.28
2019-02-18T12:28:56.764Z,7.00
2019-02-18T12:31:38.108Z,6.20
2019-02-18T12:34:19.031Z,6.08
2019-02-18T12:37:00.122Z,5.83
2019-02-18T12:39:40.684Z,6.15
2019-02-18T12:42:21.466Z,5.75
2019-02-18T12:45:03.064Z,5.92
2019-02-18T12:47:44.491Z,5.62
2019-02-18T12:50:25.571Z,5.97
2019-02-18T12:53:07.177Z,6.67
2019-02-18T12:55:47.958Z,6.65
2019-02-18T12:58:28.603Z,6.47
2019-02-18T13:01:09.284Z,6.65
2019-02-18T13:03:50.116Z,7.30
2019-02-18T13:06:30.760Z,6.40
2019-02-18T13:09:14.545Z,6.92
2019-02-18T13:11:59.000Z,6.30
2019-02-18T13:14:37.663Z,6.40
2019-02-18T13:17:18.277Z,6.25
2019-02-18T13:19:58.986Z,5.45
2019-02-18T13:22:39.803Z,6.37
2019-02-18T13:25:20.209Z,6.47
2019-02-18T13:28:08.306Z,6.33
2019-02-18T13:30:43.521Z,6.17
2019-02-18T13:33:24.344Z,7.62
2019-02-18T13:36:05.022Z,5.50
2019-02-18T13:38:45.729Z,6.00
2019-02-18T13:41:26.457Z,5.33
2019-02-18T13:44:07.261Z,5.87
2019-02-18T13:49:30.557Z,5.42
2019-02-18T13:52:11.958Z,4.78
2019-02-18T13:54:52.967Z,6.00
2019-02-18T13:57:33.718Z,6.22
2019-02-18T14:00:18.411Z,5.12
2019-02-18T14:02:58.822Z,6.03
2019-02-18T14:08:25.679Z,6.17
2019-02-18T14:11:06.086Z,6.22
2019-02-18T14:13:46.869Z,6.00
2019-02-18T14:19:16.551Z,5.45
2019-02-18T14:21:57.763Z,5.90
2019-02-18T14:24:38.479Z,5.37
2019-02-18T14:27:19.731Z,5.47
2019-02-18T14:30:00.822Z,6.60
2019-02-18T14:32:41.222Z,6.15
2019-02-18T14:35:22.149Z,7.62
2019-02-18T14:38:03.830Z,6.53
2019-02-18T14:40:44.393Z,6.97
2019-02-18T14:43:25.087Z,6.72
2019-02-18T14:46:05.966Z,7.45
2019-02-18T14:48:47.805Z,6.67
2019-02-18T14:51:28.202Z,6.80
2019-02-18T14:54:09.514Z,6.55
2019-02-18T14:56:49.997Z,6.75
2019-02-18T14:59:31.221Z,6.28
2019-02-18T15:02:11.843Z,6.65
2019-02-18T15:04:52.308Z,6.45
2019-02-18T15:07:33.235Z,6.55
2019-02-18T15:10:13.731Z,6.37
2019-02-18T15:13:01.882Z,6.60
2019-02-18T15:15:50.124Z,6.05
2019-02-18T15:18:38.377Z,6.40
2019-02-18T15:21:26.532Z,6.90
2019-02-18T15:24:14.683Z,8.05
2019-02-18T15:27:02.887Z,9.00
2019-02-18T15:29:52.787Z,8.53
2019-02-18T15:32:40.926Z,9.53
2019-02-18T15:35:29.094Z,7.87
2019-02-18T15:38:17.224Z,7.70
2019-02-18T15:41:05.621Z,8.20
2019-02-18T15:43:53.777Z,8.35
2019-02-18T15:46:41.948Z,8.95
2019-02-18T15:49:30.560Z,8.25
2019-02-18T15:52:11.990Z,8.60
2019-02-18T15:54:53.450Z,8.50
2019-02-18T15:57:34.625Z,8.50
2019-02-18T16:00:15.264Z,8.03
2019-02-18T16:02:56.131Z,8.23
2019-02-18T16:05:37.105Z,8.43
2019-02-18T16:08:18.344Z,7.53
2019-02-18T16:10:59.540Z,8.17
2019-02-18T16:13:40.355Z,7.13
2019-02-18T16:16:21.269Z,7.53
2019-02-18T16:19:03.033Z,6.67
2019-02-18T16:21:43.634Z,6.47
2019-02-18T16:24:24.154Z,7.10
2019-02-18T16:27:07.762Z,6.40
2019-02-18T16:29:48.610Z,7.83
2019-02-18T16:32:29.233Z,7.23
2019-02-18T16:37:57.605Z,6.47
2019-02-18T16:40:39.112Z,6.90
2019-02-18T16:43:08.424Z,6.67
2019-02-18T16:45:56.827Z,6.90
2019-02-18T16:48:46.692Z,6.50
2019-02-18T16:51:29.398Z,8.87
2019-02-18T16:54:10.521Z,19.93
2019-02-18T16:56:51.148Z,13.33
2019-02-18T16:59:31.599Z,17.77
2019-02-18T17:02:13.004Z,28.67
2019-02-18T17:04:54.270Z,20.10
2019-02-18T17:07:35.852Z,10.73
2019-02-18T17:10:17.221Z,9.70
2019-02-18T17:12:58.801Z,8.03
2019-02-18T17:15:39.391Z,8.90
2019-02-18T17:21:02.745Z,12.80
2019-02-18T17:23:43.833Z,13.60
2019-02-18T17:26:24.390Z,15.80
2019-02-18T17:29:05.088Z,11.80
2019-02-18T17:31:46.047Z,9.37
2019-02-18T17:34:27.222Z,7.33
2019-02-18T17:37:08.870Z,13.77
2019-02-18T17:39:49.933Z,13.70
2019-02-18T17:42:30.663Z,9.63
2019-02-18T17:45:11.507Z,8.60
2019-02-18T17:47:52.366Z,6.90
2019-02-18T17:50:33.395Z,10.10
2019-02-18T17:53:14.780Z,10.63
2019-02-18T17:55:55.858Z,9.23
2019-02-18T17:58:37.001Z,9.17
2019-02-18T18:01:18.448Z,8.03
2019-02-18T18:03:59.128Z,7.90
2019-02-18T18:06:39.860Z,7.70
2019-02-18T18:09:21.409Z,7.80
2019-02-18T18:12:02.471Z,7.37
2019-02-18T18:14:46.698Z,7.70
2019-02-18T18:17:27.665Z,8.03
2019-02-18T18:20:08.402Z,7.63
2019-02-18T18:22:49.013Z,7.30
2019-02-18T18:25:30.065Z,7.30
2019-02-18T18:28:10.655Z,7.70
2019-02-18T18:30:51.786Z,8.67
2019-02-18T18:33:20.986Z,8.73
2019-02-18T18:36:09.121Z,8.90
2019-02-18T18:38:57.332Z,9.50
2019-02-18T18:41:45.480Z,9.50
2019-02-18T18:44:33.660Z,10.73
2019-02-18T18:47:22.211Z,12.17
2019-02-18T18:50:11.589Z,19.97
2019-02-18T18:52:51.029Z,16.00
2019-02-18T18:55:39.160Z,12.23
2019-02-18T18:58:27.309Z,10.23
2019-02-18T19:01:15.457Z,18.93
2019-02-18T19:04:03.589Z,11.70
2019-02-18T19:06:51.377Z,10.63
2019-02-18T19:09:38.971Z,10.43
2019-02-18T19:12:27.352Z,11.27
2019-02-18T19:15:15.512Z,12.03
2019-02-18T19:18:03.665Z,10.90
2019-02-18T19:20:51.790Z,11.67
2019-02-18T19:23:40.104Z,10.53
2019-02-18T19:26:28.258Z,9.10
2019-02-18T19:29:16.393Z,10.07
2019-02-18T19:32:04.541Z,9.67
2019-02-18T19:34:52.710Z,10.27
2019-02-18T19:37:42.815Z,12.20
2019-02-18T19:40:31.027Z,11.77
2019-02-18T19:43:19.263Z,13.33
2019-02-18T19:46:07.464Z,12.57
2019-02-18T19:48:55.616Z,15.87
2019-02-18T19:51:43.826Z,17.13
2019-02-18T19:54:31.952Z,15.40
2019-02-18T19:57:20.353Z,13.00
2019-02-18T20:00:09.381Z,13.50
2019-02-18T20:02:57.777Z,15.20
2019-02-18T20:05:46.232Z,13.07
2019-02-18T20:11:31.209Z,13.53
2019-02-18T20:14:21.319Z,11.83
2019-02-18T20:17:09.860Z,11.70
2019-02-18T20:19:58.265Z,11.33
2019-02-18T20:22:47.174Z,11.50
2019-02-18T20:25:35.640Z,12.63
2019-02-18T20:28:23.913Z,12.33
2019-02-18T20:31:12.318Z,13.60
2019-02-18T20:34:00.759Z,28.10
2019-02-18T20:36:49.201Z,30.83
2019-02-18T20:39:37.776Z,34.20
2019-02-18T20:42:26.083Z,28.10
2019-02-18T20:45:16.224Z,28.40
2019-02-18T20:48:04.621Z,25.70
2019-02-18T20:50:52.971Z,23.63
2019-02-18T20:53:34.188Z,26.03
2019-02-18T20:56:03.286Z,25.87
2019-02-18T20:58:51.461Z,25.50
2019-02-18T21:01:39.625Z,25.60
2019-02-18T21:04:28.010Z,23.93
2019-02-18T21:07:16.596Z,23.03
2019-02-18T21:10:05.107Z,24.57
2019-02-18T21:12:53.364Z,22.03
2019-02-18T21:15:41.702Z,22.47
2019-02-18T21:18:31.607Z,22.77
2019-02-18T21:21:19.839Z,21.03
2019-02-18T21:24:08.175Z,21.50
2019-02-18T21:26:56.592Z,18.83
2019-02-18T21:29:45.070Z,19.67
2019-02-18T21:32:33.356Z,17.67
2019-02-18T21:35:21.609Z,20.17
2019-02-18T21:38:09.881Z,21.77
2019-02-18T21:40:58.518Z,21.77
2019-02-18T21:43:48.821Z,20.97
2019-02-18T21:46:37.100Z,21.83
2019-02-18T21:49:25.599Z,22.30
2019-02-18T21:52:06.362Z,21.50
2019-02-18T21:54:47.042Z,20.87
2019-02-18T21:57:28.168Z,19.67
2019-02-18T22:03:03.839Z,20.03
2019-02-18T22:05:44.978Z,18.97
2019-02-18T22:08:26.006Z,18.60
2019-02-18T22:11:07.234Z,17.50
2019-02-18T22:13:48.058Z,18.50
2019-02-18T22:16:28.642Z,17.73
2019-02-18T22:19:09.065Z,17.53
2019-02-18T22:21:49.630Z,17.33
2019-02-18T22:24:30.539Z,15.87
2019-02-18T22:27:10.936Z,16.03
2019-02-18T22:29:51.613Z,16.37
2019-02-18T22:32:32.455Z,15.70
2019-02-18T22:35:13.120Z,16.27
2019-02-18T22:37:54.112Z,17.23
2019-02-18T22:40:34.816Z,18.57
2019-02-18T22:43:15.703Z,19.50
2019-02-18T22:45:56.208Z,18.87
2019-02-18T22:48:37.224Z,18.23
2019-02-18T22:51:17.796Z,20.00
2019-02-18T22:53:58.464Z,18.40
2019-02-18T22:56:40.712Z,17.63
2019-02-18T22:59:21.985Z,17.87
2019-02-18T23:02:02.682Z,19.47
2019-02-18T23:04:43.812Z,18.13
2019-02-18T23:07:24.547Z,17.83
2019-02-18T23:10:05.443Z,18.40
2019-02-18T23:12:46.169Z,17.57
2019-02-18T23:15:26.925Z,18.40
2019-02-18T23:18:08.555Z,17.00
2019-02-18T23:20:49.166Z,17.87
2019-02-18T23:23:29.930Z,18.27
2019-02-18T23:26:10.644Z,18.10
2019-02-18T23:28:51.271Z,15.83
2019-02-18T23:31:32.325Z,19.23
2019-02-18T23:34:13.936Z,16.83
2019-02-18T23:36:54.644Z,17.00
2019-02-18T23:39:35.493Z,17.03
2019-02-18T23:42:16.334Z,17.13
2019-02-18T23:44:59.268Z,18.77
2019-02-18T23:47:39.408Z,19.47
2019-02-18T23:50:20.142Z,16.43
2019-02-18T23:53:00.902Z,17.43
2019-02-18T23:55:41.692Z,17.53
2019-02-18T23:58:22.968Z,17.07
